createdAt,value
2022-11-10T00:05:44.479Z,0.60
2022-11-10T00:11:07.111Z,0.70
2022-11-10T00:16:46.015Z,0.70
2022-11-10T00:22:06.181Z,0.80
2022-11-10T00:27:26.568Z,1.13
2022-11-10T00:32:48.264Z,1.23
2022-11-10T00:38:08.619Z,0.80
2022-11-10T00:43:30.351Z,1.00
2022-11-10T00:48:51.051Z,0.75
2022-11-10T00:54:11.637Z,0.90
2022-11-10T01:04:52.222Z,1.10
2022-11-10T01:10:12.663Z,1.17
2022-11-10T01:15:33.066Z,1.77
2022-11-10T01:20:53.384Z,0.88
2022-11-10T01:26:14.699Z,1.10
2022-11-10T01:31:35.020Z,0.90
2022-11-10T01:36:55.534Z,0.90
2022-11-10T01:42:16.141Z,0.90
2022-11-10T01:47:36.353Z,1.05
2022-11-10T02:06:35.346Z,1.00
2022-11-10T02:11:57.208Z,1.02
2022-11-10T02:17:17.600Z,1.00
2022-11-10T02:22:38.861Z,0.88
2022-11-10T02:27:59.234Z,1.08
2022-11-10T02:33:20.392Z,1.13
2022-11-10T02:38:41.056Z,1.02
2022-11-10T02:44:03.056Z,0.85
2022-11-10T02:49:23.432Z,1.33
2022-11-10T02:54:43.874Z,1.10
2022-11-10T03:00:06.035Z,1.45
2022-11-10T03:05:26.810Z,1.02
2022-11-10T03:10:46.761Z,1.45
2022-11-10T03:16:07.276Z,1.33
2022-11-10T03:21:27.282Z,1.10
2022-11-10T03:26:47.797Z,0.80
2022-11-10T03:37:22.783Z,1.10
2022-11-10T03:42:44.345Z,1.10
2022-11-10T03:48:04.428Z,1.15
2022-11-10T03:53:24.958Z,1.20
2022-11-10T03:58:45.644Z,1.00
2022-11-10T04:04:25.872Z,1.23
2022-11-10T04:09:45.844Z,1.20
2022-11-10T04:15:25.215Z,1.10
2022-11-10T04:20:45.631Z,1.20
2022-11-10T04:26:26.843Z,1.10
2022-11-10T04:31:47.194Z,1.40
2022-11-10T04:37:07.347Z,1.45
2022-11-10T04:42:27.557Z,1.38
2022-11-10T04:47:48.035Z,1.50
2022-11-10T04:53:08.593Z,1.10
2022-11-10T04:58:28.811Z,1.35
2022-11-10T05:03:50.432Z,1.27
2022-11-10T05:09:11.155Z,1.00
2022-11-10T05:14:31.804Z,1.15
2022-11-10T05:19:52.072Z,1.38
2022-11-10T05:25:12.853Z,1.20
2022-11-10T05:30:33.551Z,1.38
2022-11-10T05:41:13.663Z,1.48
2022-11-10T05:46:37.955Z,1.52
2022-11-10T05:51:58.246Z,1.48
2022-11-10T05:57:18.670Z,1.50
2022-11-10T06:02:39.091Z,1.83
2022-11-10T06:07:59.968Z,1.55
2022-11-10T06:13:20.690Z,1.20
2022-11-10T06:18:41.142Z,1.70
2022-11-10T06:24:01.505Z,1.80
2022-11-10T06:29:26.571Z,2.15
2022-11-10T06:34:47.557Z,1.65
2022-11-10T06:40:10.684Z,2.28
2022-11-10T06:45:31.333Z,1.70
2022-11-10T06:50:51.703Z,2.10
2022-11-10T06:56:12.064Z,1.58
2022-11-10T07:01:32.609Z,1.88
2022-11-10T07:06:53.399Z,1.65
2022-11-10T07:12:13.762Z,1.73
2022-11-10T07:17:39.865Z,1.45
2022-11-10T07:23:01.990Z,1.92
2022-11-10T07:28:27.237Z,1.80
2022-11-10T07:33:51.918Z,1.70
2022-11-10T07:39:14.779Z,1.83
2022-11-10T07:44:35.012Z,1.83
2022-11-10T07:49:55.660Z,1.40
2022-11-10T07:55:16.179Z,1.15
2022-11-10T08:00:37.805Z,1.08
2022-11-10T08:05:58.524Z,2.00
2022-11-10T08:11:19.059Z,1.90
2022-11-10T08:16:39.464Z,2.42
2022-11-10T08:21:59.977Z,1.48
2022-11-10T08:27:20.547Z,1.60
2022-11-10T08:32:41.297Z,1.90
2022-11-10T08:38:19.755Z,1.60
2022-11-10T08:43:40.113Z,1.50
2022-11-10T08:49:00.644Z,1.63
2022-11-10T08:54:21.441Z,1.60
2022-11-10T08:59:41.730Z,1.55
2022-11-10T09:05:02.014Z,1.27
2022-11-10T09:10:22.468Z,1.60
2022-11-10T09:15:43.815Z,1.35
2022-11-10T09:21:04.472Z,1.50
2022-11-10T09:26:24.544Z,1.30
2022-11-10T09:31:45.276Z,1.30
2022-11-10T09:37:05.626Z,1.65
2022-11-10T09:42:36.930Z,1.20
2022-11-10T09:48:06.796Z,2.55
2022-11-10T09:54:21.037Z,2.45
2022-11-10T09:59:43.475Z,1.23
2022-11-10T10:05:25.146Z,1.40
2022-11-10T10:10:57.994Z,1.15
2022-11-10T10:16:34.244Z,1.20
2022-11-10T10:22:12.882Z,2.03
2022-11-10T10:27:38.560Z,1.35
2022-11-10T10:33:11.794Z,1.42
2022-11-10T10:38:37.790Z,1.50
2022-11-10T10:44:01.433Z,1.52
2022-11-10T10:49:29.068Z,1.30
2022-11-10T10:55:01.189Z,2.13
2022-11-10T11:00:23.241Z,1.27
2022-11-10T11:05:59.484Z,1.67
2022-11-10T11:11:25.196Z,1.80
2022-11-10T11:16:49.794Z,1.05
2022-11-10T11:22:22.002Z,1.50
2022-11-10T11:27:49.337Z,1.58
2022-11-10T11:33:22.331Z,1.40
2022-11-10T11:38:45.527Z,1.30
2022-11-10T11:44:29.796Z,1.80
2022-11-10T11:49:56.071Z,2.10
2022-11-10T11:55:40.424Z,1.33
2022-11-10T12:01:15.837Z,1.08
2022-11-10T12:06:55.682Z,1.35
2022-11-10T12:12:22.057Z,1.08
2022-11-10T12:18:11.578Z,1.27
2022-11-10T12:23:46.536Z,1.50
2022-11-10T12:29:28.078Z,1.70
2022-11-10T12:34:56.317Z,1.50
2022-11-10T12:40:19.572Z,1.27
2022-11-10T12:45:45.575Z,1.70
2022-11-10T12:51:30.479Z,1.23
2022-11-10T12:57:03.251Z,1.38
2022-11-10T13:02:29.384Z,1.55
2022-11-10T13:07:51.815Z,1.38
2022-11-10T13:13:17.649Z,1.30
2022-11-10T13:18:37.878Z,1.30
2022-11-10T13:24:21.582Z,1.17
2022-11-10T13:29:48.040Z,1.20
2022-11-10T13:35:30.260Z,1.33
2022-11-10T13:40:50.765Z,0.95
2022-11-10T13:46:11.305Z,1.30
2022-11-10T13:57:25.086Z,1.30
2022-11-10T14:02:55.713Z,1.75
2022-11-10T14:08:23.797Z,1.50
2022-11-10T14:13:51.048Z,1.05
2022-11-10T14:19:13.931Z,1.70
2022-11-10T14:24:42.725Z,2.20
2022-11-10T14:30:27.190Z,1.80
2022-11-10T14:35:49.175Z,1.50
2022-11-10T14:41:18.026Z,1.33
2022-11-10T14:46:38.552Z,1.60
2022-11-10T14:51:59.742Z,1.60
2022-11-10T14:57:20.261Z,1.65
2022-11-10T15:02:41.223Z,1.48
2022-11-10T15:08:04.300Z,1.42
2022-11-10T15:13:27.476Z,1.60
2022-11-10T15:18:51.050Z,1.83
2022-11-10T15:24:11.690Z,1.75
2022-11-10T15:29:33.442Z,1.92
2022-11-10T15:34:53.608Z,2.10
2022-11-10T15:40:31.733Z,1.63
2022-11-10T15:46:01.192Z,2.22
2022-11-10T15:51:26.138Z,1.50
2022-11-10T15:56:47.300Z,2.20
2022-11-10T16:02:26.228Z,1.63
2022-11-10T16:07:46.538Z,2.50
2022-11-10T16:13:10.671Z,2.40
2022-11-10T16:18:31.889Z,2.33
2022-11-10T16:29:15.949Z,3.22
2022-11-10T16:34:35.943Z,3.13
2022-11-10T16:39:56.380Z,2.92
2022-11-10T16:45:19.409Z,3.15
2022-11-10T16:50:39.650Z,4.75
2022-11-10T16:56:00.098Z,3.53
2022-11-10T17:01:23.905Z,5.20
2022-11-10T17:06:44.622Z,3.42
2022-11-10T17:17:25.689Z,2.63
2022-11-10T17:22:46.537Z,2.78
2022-11-10T17:28:09.856Z,3.25
2022-11-10T17:33:29.965Z,3.10
2022-11-10T17:38:52.124Z,7.22
2022-11-10T17:44:16.590Z,4.05
2022-11-10T17:49:37.118Z,3.53
2022-11-10T17:54:57.488Z,4.45
2022-11-10T18:00:19.161Z,3.35
2022-11-10T18:05:39.673Z,2.67
2022-11-10T18:11:01.356Z,3.88
2022-11-10T18:16:22.117Z,2.92
2022-11-10T18:21:42.282Z,2.55
2022-11-10T18:27:02.723Z,3.30
2022-11-10T18:32:23.481Z,3.33
2022-11-10T18:43:07.661Z,2.63
2022-11-10T18:48:31.136Z,2.80
2022-11-10T18:53:55.309Z,4.20
2022-11-10T18:59:15.828Z,3.30
2022-11-10T19:09:57.901Z,3.50
2022-11-10T19:15:18.621Z,2.75
2022-11-10T19:20:40.167Z,3.22
2022-11-10T19:26:27.709Z,4.60
2022-11-10T19:31:49.425Z,2.95
2022-11-10T19:37:09.580Z,3.33
2022-11-10T19:42:29.975Z,4.07
2022-11-10T19:53:11.033Z,3.08
2022-11-10T19:58:31.720Z,2.80
2022-11-10T20:03:52.286Z,2.63
2022-11-10T20:09:12.771Z,2.80
2022-11-10T20:14:33.508Z,2.78
2022-11-10T20:19:54.304Z,1.92
2022-11-10T20:25:15.269Z,2.95
2022-11-10T20:36:18.931Z,2.50
2022-11-10T20:41:41.475Z,2.00
2022-11-10T20:47:02.356Z,2.20
2022-11-10T20:52:22.982Z,2.55
2022-11-10T20:57:43.116Z,2.38
2022-11-10T21:03:03.473Z,2.47
2022-11-10T21:08:26.370Z,2.03
2022-11-10T21:13:46.768Z,1.88
2022-11-10T21:19:07.487Z,3.38
2022-11-10T21:24:31.041Z,2.10
2022-11-10T21:29:51.463Z,2.47
2022-11-10T21:35:11.585Z,2.28
2022-11-10T21:40:32.773Z,1.70
2022-11-10T21:46:04.107Z,1.92
2022-11-10T21:51:24.728Z,2.05
2022-11-10T21:56:44.960Z,1.92
2022-11-10T22:02:05.834Z,2.05
2022-11-10T22:07:26.174Z,2.03
2022-11-10T22:13:05.165Z,2.22
2022-11-10T22:18:37.304Z,1.90
2022-11-10T22:24:16.568Z,3.10
2022-11-10T22:29:36.983Z,1.92
2022-11-10T22:34:57.327Z,2.03
2022-11-10T22:40:36.250Z,2.33
2022-11-10T22:45:56.364Z,2.40
2022-11-10T22:51:16.856Z,2.55
2022-11-10T22:56:37.834Z,1.80
2022-11-10T23:01:58.091Z,2.38
2022-11-10T23:07:18.477Z,2.20
2022-11-10T23:12:38.855Z,2.60
2022-11-10T23:18:05.304Z,2.30
2022-11-10T23:23:27.826Z,2.03
2022-11-10T23:28:48.366Z,2.60
2022-11-10T23:39:29.010Z,2.03
2022-11-10T23:44:49.427Z,2.03
2022-11-10T23:50:10.190Z,1.83
2022-11-10T23:55:30.902Z,2.25
